createdAt,value
2017-03-19T00:00:20.473Z,20.13
2017-03-19T00:01:30.725Z,20.14
2017-03-19T00:02:40.667Z,20.28
2017-03-19T00:03:50.617Z,20.14
2017-03-19T00:05:00.883Z,20.21
2017-03-19T00:06:10.830Z,20.13
2017-03-19T00:07:21.106Z,20.24
2017-03-19T00:08:31.051Z,20.21
2017-03-19T00:09:41.337Z,20.17
2017-03-19T00:10:51.285Z,20.11
2017-03-19T00:12:01.546Z,20.18
2017-03-19T00:13:11.176Z,20.17
2017-03-19T00:14:21.126Z,20.14
2017-03-19T00:15:30.752Z,20.17
2017-03-19T00:16:40.699Z,20.23
2017-03-19T00:17:50.638Z,20.11
2017-03-19T00:19:00.896Z,20.26
2017-03-19T00:20:10.531Z,20.2
2017-03-19T00:21:20.790Z,20.18
2017-03-19T00:22:31.046Z,20.18
2017-03-19T00:23:41.310Z,20.21
2017-03-19T00:24:51.568Z,20.16
2017-03-19T00:26:01.830Z,20.17
2017-03-19T00:27:12.088Z,20.17
2017-03-19T00:28:22.056Z,20.14
2017-03-19T00:29:32.002Z,20.17
2017-03-19T00:30:42.259Z,20.2
2017-03-19T00:31:52.514Z,20.18
2017-03-19T00:33:02.776Z,20.13
2017-03-19T00:34:13.043Z,20.1
2017-03-19T00:35:23.303Z,20.06
2017-03-19T00:36:33.240Z,20.05
2017-03-19T00:37:42.875Z,20.11
2017-03-19T00:38:53.141Z,20.1
2017-03-19T00:40:03.411Z,20.13
2017-03-19T00:41:13.352Z,20.2
2017-03-19T00:42:22.664Z,20.06
2017-03-19T00:43:32.618Z,20.17
2017-03-19T00:44:42.588Z,20.1
2017-03-19T00:45:52.532Z,20.05
2017-03-19T00:47:02.473Z,20.14
2017-03-19T00:48:12.419Z,20.11
2017-03-19T00:49:22.683Z,20.14
2017-03-19T00:50:32.628Z,20.11
2017-03-19T00:51:42.888Z,20.16
2017-03-19T00:52:53.143Z,20.14
2017-03-19T00:54:02.778Z,20.14
2017-03-19T00:55:13.038Z,20.16
2017-03-19T00:56:23.298Z,20.18
2017-03-19T00:57:33.555Z,20.11
2017-03-19T00:58:43.511Z,20.1
2017-03-19T00:59:53.452Z,20.13
2017-03-19T01:01:03.708Z,20.05
2017-03-19T01:02:13.964Z,20.1
2017-03-19T01:03:23.284Z,20.11
2017-03-19T01:04:33.546Z,20.1
2017-03-19T01:05:43.801Z,20.08
2017-03-19T01:06:54.058Z,20.08
2017-03-19T01:08:04.317Z,20.05
2017-03-19T01:09:14.579Z,20.13
2017-03-19T01:10:24.533Z,20.08
2017-03-19T01:11:34.801Z,20.06
2017-03-19T01:12:45.058Z,20.08
2017-03-19T01:13:55.004Z,20.11
2017-03-19T01:15:04.641Z,20.06
2017-03-19T01:16:14.899Z,20.11
2017-03-19T01:17:25.190Z,20.08
2017-03-19T01:18:35.132Z,20.08
2017-03-19T01:19:45.388Z,20.08
2017-03-19T01:20:55.342Z,20.13
2017-03-19T01:22:05.598Z,20.11
2017-03-19T01:23:15.547Z,20.03
2017-03-19T01:24:25.491Z,20.13
2017-03-19T01:25:35.746Z,20.06
2017-03-19T01:26:45.373Z,20.08
2017-03-19T01:27:55.629Z,20.08
2017-03-19T01:29:05.568Z,20.11
2017-03-19T01:30:15.202Z,20.1
2017-03-19T01:31:25.148Z,20.02
2017-03-19T01:32:35.136Z,20.06
2017-03-19T01:33:45.084Z,20.08
2017-03-19T01:34:55.032Z,20.11
2017-03-19T01:36:04.981Z,20.01
2017-03-19T01:37:15.241Z,20.03
2017-03-19T01:38:24.885Z,20.01
2017-03-19T01:39:35.141Z,19.99
2017-03-19T01:40:45.085Z,20.08
2017-03-19T01:41:54.406Z,19.96
2017-03-19T01:43:04.045Z,19.95
2017-03-19T01:44:13.681Z,20.05
2017-03-19T01:45:23.965Z,20.06
2017-03-19T01:46:34.225Z,20.08
2017-03-19T01:47:44.484Z,20.1
2017-03-19T01:48:54.747Z,20.03
2017-03-19T01:50:04.698Z,19.99
2017-03-19T01:51:14.633Z,20.05
2017-03-19T01:52:24.891Z,20.1
2017-03-19T01:53:35.156Z,20.05
2017-03-19T01:54:45.100Z,20.03
2017-03-19T01:55:55.360Z,20.08
2017-03-19T01:57:05.303Z,20.06
2017-03-19T01:58:15.242Z,20.06
2017-03-19T01:59:24.880Z,20.05
2017-03-19T02:00:34.832Z,20.08
2017-03-19T02:01:44.774Z,20.03
2017-03-19T02:02:55.073Z,19.98
2017-03-19T02:04:05.332Z,19.96
2017-03-19T02:05:15.294Z,20.01
2017-03-19T02:06:25.551Z,19.99
2017-03-19T02:07:35.498Z,19.98
2017-03-19T02:08:45.760Z,20.08
2017-03-19T02:09:55.395Z,20.02
2017-03-19T02:11:05.033Z,19.99
2017-03-19T02:12:14.976Z,19.96
2017-03-19T02:13:24.607Z,20.01
2017-03-19T02:14:34.866Z,19.92
2017-03-19T02:15:45.120Z,20.01
2017-03-19T02:16:55.375Z,20.01
2017-03-19T02:18:05.636Z,19.94
2017-03-19T02:19:15.582Z,19.99
2017-03-19T02:20:25.837Z,19.98
2017-03-19T02:21:36.096Z,20.02
2017-03-19T02:22:45.738Z,19.94
2017-03-19T02:23:56.000Z,19.94
2017-03-19T02:25:06.265Z,19.95
2017-03-19T02:26:15.890Z,20.02
2017-03-19T02:27:26.152Z,19.99
2017-03-19T02:28:36.409Z,19.96
2017-03-19T02:29:46.675Z,19.96
2017-03-19T02:30:56.970Z,19.96
2017-03-19T02:32:06.606Z,19.96
2017-03-19T02:33:16.867Z,19.95
2017-03-19T02:34:26.814Z,19.96
2017-03-19T02:35:37.065Z,19.96
2017-03-19T02:36:47.008Z,19.96
2017-03-19T02:37:56.646Z,19.96
2017-03-19T02:39:06.906Z,19.98
2017-03-19T02:40:17.161Z,19.95
2017-03-19T02:41:27.423Z,20.03
2017-03-19T02:42:37.372Z,19.99
2017-03-19T02:43:47.012Z,19.99
2017-03-19T02:44:57.276Z,19.96
2017-03-19T02:46:07.537Z,20.01
2017-03-19T02:47:17.474Z,19.96
2017-03-19T02:48:27.418Z,19.96
2017-03-19T02:49:37.681Z,19.98
2017-03-19T02:50:47.935Z,19.92
2017-03-19T02:51:58.188Z,19.98
2017-03-19T02:53:08.452Z,19.92
2017-03-19T02:54:18.402Z,19.95
2017-03-19T02:55:28.672Z,19.99
2017-03-19T02:56:38.625Z,19.95
2017-03-19T02:57:48.570Z,20.06
2017-03-19T02:58:58.548Z,20.02
2017-03-19T03:00:08.808Z,20.01
2017-03-19T03:01:19.071Z,19.94
2017-03-19T03:02:28.703Z,19.96
2017-03-19T03:03:38.966Z,19.95
2017-03-19T03:04:48.914Z,19.98
2017-03-19T03:05:59.167Z,19.91
2017-03-19T03:07:09.433Z,19.95
2017-03-19T03:08:19.380Z,19.94
2017-03-19T03:09:29.652Z,19.91
2017-03-19T03:10:39.600Z,19.87
2017-03-19T03:11:49.538Z,19.95
2017-03-19T03:12:59.796Z,19.88
2017-03-19T03:14:09.744Z,19.92
2017-03-19T03:15:20.009Z,19.94
2017-03-19T03:16:29.953Z,19.94
2017-03-19T03:17:39.894Z,19.98
2017-03-19T03:18:50.157Z,19.88
2017-03-19T03:20:00.102Z,19.83
2017-03-19T03:21:10.369Z,19.88
2017-03-19T03:22:20.640Z,19.87
2017-03-19T03:23:30.603Z,19.96
2017-03-19T03:24:40.554Z,20.02
2017-03-19T03:25:50.182Z,19.91
2017-03-19T03:27:00.438Z,19.96
2017-03-19T03:28:10.386Z,19.96
2017-03-19T03:29:20.645Z,19.94
2017-03-19T03:30:30.282Z,19.95
2017-03-19T03:31:40.224Z,19.81
2017-03-19T03:32:49.854Z,19.84
2017-03-19T03:34:00.111Z,19.94
2017-03-19T03:35:10.372Z,20.01
2017-03-19T03:36:20.314Z,20.1
2017-03-19T03:37:29.944Z,20.16
2017-03-19T03:38:40.202Z,20.11
2017-03-19T03:39:50.146Z,20.2
2017-03-19T03:40:59.781Z,20.13
2017-03-19T03:42:09.437Z,20.14
2017-03-19T03:43:19.698Z,20.16
2017-03-19T03:44:29.958Z,20.24
2017-03-19T03:45:40.214Z,20.24
2017-03-19T03:46:50.488Z,20.32
2017-03-19T03:48:00.433Z,20.23
2017-03-19T03:49:10.691Z,20.26
2017-03-19T03:50:20.953Z,20.24
2017-03-19T03:51:30.893Z,20.23
2017-03-19T03:52:41.157Z,20.26
2017-03-19T03:53:50.797Z,20.23
2017-03-19T03:55:01.053Z,20.26
2017-03-19T03:56:10.678Z,20.24
2017-03-19T03:57:20.624Z,20.24
2017-03-19T03:58:30.575Z,20.31
2017-03-19T03:59:40.525Z,20.31
2017-03-19T04:00:50.779Z,20.35
2017-03-19T04:02:01.034Z,20.26
2017-03-19T04:03:10.659Z,20.28
2017-03-19T04:04:20.920Z,20.28
2017-03-19T04:05:30.890Z,20.28
2017-03-19T04:06:41.147Z,20.29
2017-03-19T04:07:51.091Z,20.26
2017-03-19T04:09:01.040Z,20.26
2017-03-19T04:10:10.983Z,20.28
2017-03-19T04:11:20.924Z,20.29
2017-03-19T04:12:31.178Z,20.31
2017-03-19T04:13:41.445Z,20.32
2017-03-19T04:14:51.071Z,20.28
2017-03-19T04:16:01.327Z,20.31
2017-03-19T04:17:11.584Z,20.36
2017-03-19T04:18:21.843Z,20.35
2017-03-19T04:19:31.478Z,20.24
2017-03-19T04:20:41.750Z,20.31
2017-03-19T04:21:51.695Z,20.36
2017-03-19T04:23:01.324Z,20.28
2017-03-19T04:24:11.606Z,20.36
2017-03-19T04:25:21.879Z,20.29
2017-03-19T04:26:31.503Z,20.28
2017-03-19T04:27:41.453Z,20.28
2017-03-19T04:28:51.398Z,20.28
2017-03-19T04:30:01.035Z,20.26
2017-03-19T04:31:11.314Z,20.23
2017-03-19T04:32:20.947Z,20.28
2017-03-19T04:33:30.965Z,20.36
2017-03-19T04:34:40.597Z,20.26
2017-03-19T04:35:50.537Z,20.35
2017-03-19T04:37:00.789Z,20.26
2017-03-19T04:38:10.734Z,20.32
2017-03-19T04:39:20.989Z,20.26
2017-03-19T04:40:30.933Z,20.31
2017-03-19T04:41:41.189Z,20.23
2017-03-19T04:42:50.501Z,20.26
2017-03-19T04:44:00.758Z,20.32
2017-03-19T04:45:11.020Z,20.26
2017-03-19T04:46:20.963Z,20.26
2017-03-19T04:47:31.220Z,20.28
2017-03-19T04:48:41.202Z,20.29
2017-03-19T04:49:51.157Z,20.26
2017-03-19T04:51:01.100Z,20.32
2017-03-19T04:52:11.354Z,20.26
2017-03-19T04:53:21.298Z,20.24
2017-03-19T04:54:31.254Z,20.24
2017-03-19T04:55:41.213Z,20.24
2017-03-19T04:56:50.837Z,20.31
2017-03-19T04:58:01.098Z,20.28
2017-03-19T04:59:11.361Z,20.29
2017-03-19T05:00:21.304Z,20.29
2017-03-19T05:01:31.560Z,20.26
2017-03-19T05:02:41.197Z,20.33
2017-03-19T05:03:51.150Z,20.29
2017-03-19T05:05:01.094Z,20.29
2017-03-19T05:06:11.032Z,20.31
2017-03-19T05:07:21.295Z,20.28
2017-03-19T05:08:31.562Z,20.35
2017-03-19T05:09:41.827Z,20.33
2017-03-19T05:10:52.086Z,20.32
2017-03-19T05:12:02.341Z,20.33
2017-03-19T05:13:11.975Z,20.28
2017-03-19T05:14:21.926Z,20.31
2017-03-19T05:15:31.247Z,20.33
2017-03-19T05:16:41.506Z,20.33
2017-03-19T05:17:51.447Z,20.32
2017-03-19T05:19:01.413Z,20.31
2017-03-19T05:20:11.669Z,20.26
2017-03-19T05:21:21.928Z,20.32
2017-03-19T05:22:32.185Z,20.28
2017-03-19T05:23:42.450Z,20.32
2017-03-19T05:24:52.707Z,20.29
2017-03-19T05:26:02.966Z,20.35
2017-03-19T05:27:13.224Z,20.33
2017-03-19T05:28:22.229Z,20.33
2017-03-19T05:29:32.492Z,20.33
2017-03-19T05:30:42.125Z,20.32
2017-03-19T05:31:52.064Z,20.36
2017-03-19T05:33:02.009Z,20.21
2017-03-19T05:34:11.326Z,20.16
2017-03-19T05:35:20.952Z,20.18
2017-03-19T05:36:31.208Z,19.65
2017-03-19T05:37:41.161Z,19.69
2017-03-19T05:38:51.422Z,19.8
2017-03-19T05:40:01.683Z,20.17
2017-03-19T05:41:11.312Z,20.31
2017-03-19T05:42:20.630Z,20.33
2017-03-19T05:43:30.573Z,20.54
2017-03-19T05:44:40.525Z,20.59
2017-03-19T05:45:50.777Z,20.62
2017-03-19T05:47:00.716Z,20.66
2017-03-19T05:48:10.347Z,20.73
2017-03-19T05:49:20.296Z,20.72
2017-03-19T05:50:30.240Z,20.72
2017-03-19T05:51:39.884Z,20.7
2017-03-19T05:52:50.166Z,20.76
2017-03-19T05:54:00.431Z,20.82
2017-03-19T05:55:10.376Z,20.8
2017-03-19T05:56:20.318Z,20.82
2017-03-19T05:57:30.267Z,20.74
2017-03-19T05:58:40.271Z,20.77
2017-03-19T05:59:50.222Z,20.88
2017-03-19T06:01:00.486Z,20.84
2017-03-19T06:02:10.434Z,20.91
2017-03-19T06:03:20.800Z,20.88
2017-03-19T06:04:31.064Z,20.89
2017-03-19T06:05:41.015Z,20.89
2017-03-19T06:06:50.954Z,20.94
2017-03-19T06:08:00.588Z,20.88
2017-03-19T06:09:10.532Z,20.88
2017-03-19T06:10:20.791Z,20.82
2017-03-19T06:11:30.742Z,20.94
2017-03-19T06:12:40.369Z,20.89
2017-03-19T06:13:50.316Z,20.94
2017-03-19T06:15:00.262Z,20.92
2017-03-19T06:16:10.510Z,20.91
2017-03-19T06:17:20.769Z,20.95
2017-03-19T06:18:30.403Z,20.91
2017-03-19T06:19:40.664Z,20.98
2017-03-19T06:20:50.296Z,20.92
2017-03-19T06:22:00.552Z,20.97
2017-03-19T06:23:10.810Z,20.94
2017-03-19T06:24:20.761Z,20.95
2017-03-19T06:25:31.057Z,20.95
2017-03-19T06:26:41.314Z,21.01
2017-03-19T06:27:50.951Z,21.01
2017-03-19T06:29:00.586Z,20.95
2017-03-19T06:30:10.879Z,20.99
2017-03-19T06:31:20.823Z,21.03
2017-03-19T06:32:30.769Z,20.97
2017-03-19T06:33:40.722Z,20.94
2017-03-19T06:34:49.726Z,20.87
2017-03-19T06:35:59.673Z,20.79
2017-03-19T06:37:09.617Z,20.74
2017-03-19T06:38:19.242Z,20.76
2017-03-19T06:39:29.183Z,20.72
2017-03-19T06:40:39.464Z,20.69
2017-03-19T06:41:49.718Z,20.82
2017-03-19T06:42:59.348Z,20.77
2017-03-19T06:44:09.293Z,20.88
2017-03-19T06:45:19.544Z,20.76
2017-03-19T06:46:29.803Z,20.7
2017-03-19T06:47:39.758Z,20.82
2017-03-19T06:48:49.701Z,20.74
2017-03-19T06:49:59.045Z,20.73
2017-03-19T06:51:09.304Z,20.76
2017-03-19T06:52:19.561Z,20.8
2017-03-19T06:53:29.510Z,20.77
2017-03-19T06:54:39.457Z,20.91
2017-03-19T06:55:49.706Z,20.91
2017-03-19T06:56:59.967Z,20.88
2017-03-19T06:58:10.234Z,20.91
2017-03-19T06:59:20.182Z,20.88
2017-03-19T07:00:30.123Z,20.94
2017-03-19T07:01:40.380Z,20.87
2017-03-19T07:02:50.334Z,20.88
2017-03-19T07:03:59.970Z,20.92
2017-03-19T07:05:10.226Z,20.91
2017-03-19T07:06:20.175Z,20.91
2017-03-19T07:07:30.125Z,20.89
2017-03-19T07:08:40.077Z,20.89
2017-03-19T07:09:50.023Z,20.89
2017-03-19T07:11:00.006Z,20.91
2017-03-19T07:12:09.635Z,20.95
2017-03-19T07:13:19.579Z,20.89
2017-03-19T07:14:29.222Z,20.89
2017-03-19T07:15:39.171Z,20.94
2017-03-19T07:16:49.117Z,20.91
2017-03-19T07:17:58.439Z,20.89
2017-03-19T07:19:08.390Z,20.92
2017-03-19T07:20:18.017Z,20.92
2017-03-19T07:21:27.647Z,20.94
2017-03-19T07:22:37.277Z,20.95
2017-03-19T07:23:47.391Z,20.88
2017-03-19T07:24:57.764Z,20.94
2017-03-19T07:26:08.076Z,20.95
2017-03-19T07:27:18.780Z,20.97
2017-03-19T07:28:29.140Z,20.98
2017-03-19T07:29:39.509Z,20.94
2017-03-19T07:30:49.582Z,20.92
2017-03-19T07:31:59.605Z,20.91
2017-03-19T07:33:10.294Z,20.97
2017-03-19T07:34:20.585Z,20.92
2017-03-19T07:35:31.132Z,20.99
2017-03-19T07:36:41.708Z,20.85
2017-03-19T07:37:50.928Z,20.76
2017-03-19T07:39:01.439Z,20.76
2017-03-19T07:40:11.928Z,20.73
2017-03-19T07:41:22.064Z,20.76
2017-03-19T07:42:31.805Z,20.62
2017-03-19T07:43:41.881Z,20.59
2017-03-19T07:44:51.989Z,20.64
2017-03-19T07:46:02.054Z,20.59
2017-03-19T07:47:12.087Z,20.69
2017-03-19T07:48:21.725Z,20.64
2017-03-19T07:49:31.358Z,20.58
2017-03-19T07:50:41.309Z,20.64
2017-03-19T07:51:51.246Z,20.62
2017-03-19T07:53:01.196Z,20.62
2017-03-19T07:54:10.840Z,20.55
2017-03-19T07:55:20.780Z,20.59
2017-03-19T07:56:29.780Z,20.61
2017-03-19T07:57:39.726Z,20.61
2017-03-19T07:58:49.381Z,20.64
2017-03-19T07:59:59.675Z,20.59
2017-03-19T08:01:09.619Z,20.58
2017-03-19T08:02:19.884Z,20.48
2017-03-19T08:03:29.511Z,20.59
2017-03-19T08:04:39.776Z,20.62
2017-03-19T08:05:49.728Z,20.58
2017-03-19T08:06:59.685Z,20.54
2017-03-19T08:08:09.635Z,20.62
2017-03-19T08:09:19.901Z,20.62
2017-03-19T08:10:30.154Z,20.61
2017-03-19T08:11:40.418Z,20.64
2017-03-19T08:12:50.365Z,20.54
2017-03-19T08:14:00.320Z,20.59
2017-03-19T08:15:10.263Z,20.62
2017-03-19T08:16:20.213Z,20.66
2017-03-19T08:17:30.473Z,20.61
2017-03-19T08:18:40.418Z,20.61
2017-03-19T08:19:50.684Z,20.59
2017-03-19T08:21:00.319Z,20.58
2017-03-19T08:22:10.255Z,20.64
2017-03-19T08:23:20.514Z,20.64
2017-03-19T08:24:30.471Z,20.77
2017-03-19T08:25:40.097Z,20.76
2017-03-19T08:26:50.073Z,20.84
2017-03-19T08:28:00.019Z,20.76
2017-03-19T08:29:10.280Z,20.82
2017-03-19T08:30:20.222Z,20.84
2017-03-19T08:31:30.532Z,20.8
2017-03-19T08:32:40.483Z,20.89
2017-03-19T08:33:50.432Z,20.87
2017-03-19T08:35:00.376Z,20.92
2017-03-19T08:36:10.048Z,20.89
2017-03-19T08:37:20.479Z,20.76
2017-03-19T08:38:30.430Z,20.77
2017-03-19T08:39:40.693Z,20.8
2017-03-19T08:40:50.640Z,20.79
2017-03-19T08:42:00.590Z,20.76
2017-03-19T08:43:10.534Z,20.73
2017-03-19T08:44:20.797Z,20.74
2017-03-19T08:45:30.739Z,20.85
2017-03-19T08:46:40.997Z,20.85
2017-03-19T08:47:50.945Z,20.76
2017-03-19T08:49:00.579Z,20.73
2017-03-19T08:50:10.522Z,20.72
2017-03-19T08:51:20.780Z,20.73
2017-03-19T08:52:30.727Z,20.72
2017-03-19T08:53:40.705Z,20.72
2017-03-19T08:54:50.963Z,20.69
2017-03-19T08:56:00.914Z,20.74
2017-03-19T08:57:10.864Z,20.7
2017-03-19T08:58:20.849Z,20.61
2017-03-19T08:59:31.115Z,20.32
2017-03-19T09:00:41.067Z,20.33
2017-03-19T09:01:51.325Z,20.33
2017-03-19T09:03:01.581Z,20.23
2017-03-19T09:04:11.525Z,20.14
2017-03-19T09:05:21.474Z,20.06
2017-03-19T09:06:31.417Z,20.11
2017-03-19T09:07:41.367Z,20.28
2017-03-19T09:08:51.628Z,20.21
2017-03-19T09:10:01.577Z,20.13
2017-03-19T09:11:11.833Z,19.99
2017-03-19T09:12:21.772Z,19.96
2017-03-19T09:13:31.712Z,20.01
2017-03-19T09:14:40.718Z,19.96
2017-03-19T09:15:50.991Z,19.94
2017-03-19T09:17:01.246Z,19.92
2017-03-19T09:18:11.503Z,19.98
2017-03-19T09:19:21.135Z,19.95
2017-03-19T09:20:30.768Z,19.98
2017-03-19T09:21:41.057Z,20.01
2017-03-19T09:22:51.001Z,19.96
2017-03-19T09:24:01.259Z,19.99
2017-03-19T09:25:11.524Z,19.94
2017-03-19T09:26:21.782Z,20.06
2017-03-19T09:27:31.413Z,20.01
2017-03-19T09:28:41.047Z,19.96
2017-03-19T09:29:50.999Z,19.95
2017-03-19T09:31:01.266Z,19.87
2017-03-19T09:32:11.528Z,19.87
2017-03-19T09:33:21.477Z,19.94
2017-03-19T09:34:31.439Z,19.87
2017-03-19T09:35:41.084Z,19.61
2017-03-19T09:36:51.031Z,19.78
2017-03-19T09:38:00.977Z,19.98
2017-03-19T09:39:11.242Z,19.98
2017-03-19T09:40:21.191Z,19.99
2017-03-19T09:41:30.820Z,19.98
2017-03-19T09:42:40.462Z,20.08
2017-03-19T09:43:50.099Z,20.06
2017-03-19T09:44:59.739Z,20.17
2017-03-19T09:46:09.683Z,20.17
2017-03-19T09:47:19.624Z,20.29
2017-03-19T09:48:29.878Z,20.35
2017-03-19T09:49:40.135Z,20.48
2017-03-19T09:50:50.389Z,20.47
2017-03-19T09:52:00.649Z,20.48
2017-03-19T09:53:10.903Z,20.06
2017-03-19T09:54:21.170Z,19.68
2017-03-19T09:55:30.805Z,18.94
2017-03-19T09:56:40.763Z,18.41
2017-03-19T09:57:50.709Z,18.14
2017-03-19T09:59:00.073Z,17.87
2017-03-19T10:00:10.019Z,17.71
2017-03-19T10:01:19.959Z,17.54
2017-03-19T10:02:29.896Z,17.25
2017-03-19T10:03:39.843Z,17.08
2017-03-19T10:04:50.105Z,16.96
2017-03-19T10:06:00.364Z,16.78
2017-03-19T10:07:10.317Z,16.78
2017-03-19T10:08:20.608Z,17.03
2017-03-19T10:09:30.555Z,17.66
2017-03-19T10:10:40.193Z,18.05
2017-03-19T10:11:49.830Z,18.54
2017-03-19T10:13:00.088Z,18.8
2017-03-19T10:14:09.729Z,19
2017-03-19T10:15:19.678Z,19.21
2017-03-19T10:16:29.616Z,19.26
2017-03-19T10:17:39.553Z,19.36
2017-03-19T10:18:49.810Z,19.48
2017-03-19T10:19:59.760Z,19.46
2017-03-19T10:21:10.019Z,19.55
2017-03-19T10:22:19.961Z,19.51
2017-03-19T10:23:29.599Z,19.58
2017-03-19T10:24:39.865Z,19.62
2017-03-19T10:25:50.134Z,19.76
2017-03-19T10:27:00.399Z,19.66
2017-03-19T10:28:10.346Z,19.71
2017-03-19T10:29:20.609Z,19.71
2017-03-19T10:30:30.237Z,19.81
2017-03-19T10:31:40.210Z,19.8
2017-03-19T10:32:50.491Z,19.83
2017-03-19T10:34:00.748Z,19.83
2017-03-19T10:35:11.006Z,19.87
2017-03-19T10:36:20.947Z,19.92
2017-03-19T10:37:30.890Z,19.92
2017-03-19T10:38:40.523Z,19.92
2017-03-19T10:39:50.788Z,20.03
2017-03-19T10:41:01.049Z,19.94
2017-03-19T10:42:10.675Z,19.95
2017-03-19T10:43:20.933Z,19.98
2017-03-19T10:44:30.254Z,20.08
2017-03-19T10:45:40.195Z,20.02
2017-03-19T10:46:50.454Z,19.98
2017-03-19T10:48:00.713Z,20.03
2017-03-19T10:49:10.680Z,20.03
2017-03-19T10:50:20.624Z,20.06
2017-03-19T10:51:30.250Z,20.1
2017-03-19T10:52:39.888Z,20.05
2017-03-19T10:53:50.153Z,20.18
2017-03-19T10:55:00.112Z,20.21
2017-03-19T10:56:10.049Z,20.21
2017-03-19T10:57:20.303Z,20.18
2017-03-19T10:58:29.942Z,20.11
2017-03-19T10:59:39.884Z,20.11
2017-03-19T11:00:50.137Z,20.2
2017-03-19T11:02:00.077Z,20.21
2017-03-19T11:03:10.019Z,20.14
2017-03-19T11:04:19.975Z,20.16
2017-03-19T11:05:29.611Z,20.14
2017-03-19T11:06:39.547Z,20.24
2017-03-19T11:07:49.501Z,20.26
2017-03-19T11:08:59.453Z,20.32
2017-03-19T11:10:09.398Z,20.24
2017-03-19T11:11:19.650Z,20.23
2017-03-19T11:12:29.592Z,20.28
2017-03-19T11:13:39.855Z,20.28
2017-03-19T11:14:50.113Z,20.29
2017-03-19T11:16:00.054Z,20.24
2017-03-19T11:17:10.306Z,20.28
2017-03-19T11:18:20.260Z,20.18
2017-03-19T11:19:30.526Z,20.28
2017-03-19T11:20:40.779Z,20.28
2017-03-19T11:21:50.427Z,20.35
2017-03-19T11:23:00.371Z,20.31
2017-03-19T11:24:10.627Z,20.31
2017-03-19T11:25:20.260Z,20.32
2017-03-19T11:26:30.205Z,20.32
2017-03-19T11:27:39.841Z,20.31
2017-03-19T11:28:50.127Z,20.29
2017-03-19T11:30:00.075Z,20.33
2017-03-19T11:31:10.026Z,20.33
2017-03-19T11:32:19.655Z,20.28
2017-03-19T11:33:29.602Z,20.47
2017-03-19T11:34:39.551Z,20.48
2017-03-19T11:35:49.812Z,20.42
2017-03-19T11:37:00.075Z,20.42
2017-03-19T11:38:10.022Z,20.42
2017-03-19T11:39:20.286Z,20.36
2017-03-19T11:40:30.238Z,20.38
2017-03-19T11:41:40.496Z,20.33
2017-03-19T11:42:50.755Z,20.31
2017-03-19T11:44:01.015Z,20.29
2017-03-19T11:45:10.975Z,20.39
2017-03-19T11:46:20.916Z,20.35
2017-03-19T11:47:30.854Z,20.33
2017-03-19T11:48:40.815Z,20.33
2017-03-19T11:49:50.807Z,20.28
2017-03-19T11:51:01.068Z,20.35
2017-03-19T11:52:11.243Z,20.33
2017-03-19T11:53:21.570Z,20.36
2017-03-19T11:54:31.775Z,20.39
2017-03-19T11:55:42.383Z,20.33
2017-03-19T11:56:53.045Z,20.31
2017-03-19T11:58:03.049Z,20.33
2017-03-19T11:59:13.398Z,20.33
2017-03-19T12:00:22.804Z,20.31
2017-03-19T12:01:32.558Z,20.35
2017-03-19T12:02:42.596Z,20.29
2017-03-19T12:03:52.556Z,20.38
2017-03-19T12:05:02.818Z,20.32
2017-03-19T12:06:12.763Z,20.29
2017-03-19T12:07:22.705Z,20.29
2017-03-19T12:08:32.651Z,20.31
2017-03-19T12:09:42.912Z,20.33
2017-03-19T12:10:52.881Z,20.39
2017-03-19T12:12:02.510Z,20.35
2017-03-19T12:13:12.486Z,20.33
2017-03-19T12:14:22.117Z,20.29
2017-03-19T12:15:32.066Z,20.41
2017-03-19T12:16:42.003Z,20.48
2017-03-19T12:17:51.955Z,20.55
2017-03-19T12:19:02.219Z,20.62
2017-03-19T12:20:12.174Z,20.5
2017-03-19T12:21:21.495Z,20.57
2017-03-19T12:22:30.810Z,20.58
2017-03-19T12:23:40.451Z,20.62
2017-03-19T12:24:50.718Z,20.69
2017-03-19T12:26:00.036Z,20.74
2017-03-19T12:27:09.679Z,20.8
2017-03-19T12:28:19.954Z,20.82
2017-03-19T12:29:29.904Z,20.76
2017-03-19T12:30:40.157Z,20.77
2017-03-19T12:31:50.105Z,20.76
2017-03-19T12:33:00.086Z,20.84
2017-03-19T12:34:10.035Z,20.77
2017-03-19T12:35:20.293Z,20.77
2017-03-19T12:36:29.609Z,20.72
2017-03-19T12:37:39.870Z,20.72
2017-03-19T12:38:50.138Z,20.61
2017-03-19T12:40:00.122Z,20.72
2017-03-19T12:41:09.754Z,20.72
2017-03-19T12:42:19.382Z,20.62
2017-03-19T12:43:29.327Z,20.72
2017-03-19T12:44:39.269Z,20.69
2017-03-19T12:45:48.897Z,20.72
2017-03-19T12:46:58.841Z,20.64
2017-03-19T12:48:09.103Z,20.72
2017-03-19T12:49:18.115Z,20.76
2017-03-19T12:50:28.375Z,20.64
2017-03-19T12:51:38.323Z,20.76
2017-03-19T12:52:48.266Z,20.77
2017-03-19T12:53:58.236Z,20.74
2017-03-19T12:55:07.868Z,20.69
2017-03-19T12:56:18.124Z,20.76
2017-03-19T12:57:28.066Z,20.7
2017-03-19T12:58:38.010Z,20.72
2017-03-19T12:59:47.331Z,20.76
2017-03-19T13:00:57.273Z,20.74
2017-03-19T13:02:07.527Z,20.74
2017-03-19T13:03:17.785Z,20.73
2017-03-19T13:04:28.063Z,20.74
2017-03-19T13:05:38.323Z,20.82
2017-03-19T13:06:48.266Z,20.66
2017-03-19T13:07:57.901Z,20.72
2017-03-19T13:09:08.159Z,20.73
2017-03-19T13:10:17.481Z,20.66
2017-03-19T13:11:27.106Z,20.7
2017-03-19T13:12:37.366Z,20.67
2017-03-19T13:13:47.316Z,20.72
2017-03-19T13:14:57.590Z,20.67
2017-03-19T13:16:07.223Z,20.74
2017-03-19T13:17:17.479Z,20.72
2017-03-19T13:18:27.426Z,20.74
2017-03-19T13:19:37.403Z,20.72
2017-03-19T13:20:47.662Z,20.74
2017-03-19T13:21:57.600Z,20.82
2017-03-19T13:23:07.861Z,20.72
2017-03-19T13:24:17.813Z,20.74
2017-03-19T13:25:27.757Z,20.76
2017-03-19T13:26:37.073Z,20.77
2017-03-19T13:27:47.339Z,20.74
2017-03-19T13:28:57.605Z,20.8
2017-03-19T13:30:07.866Z,20.79
2017-03-19T13:31:17.811Z,20.74
2017-03-19T13:32:27.154Z,20.77
2017-03-19T13:33:37.097Z,20.77
2017-03-19T13:34:47.356Z,20.77
2017-03-19T13:35:57.616Z,20.73
2017-03-19T13:37:07.874Z,20.8
2017-03-19T13:38:18.132Z,20.79
2017-03-19T13:39:27.767Z,20.73
2017-03-19T13:40:37.711Z,20.7
2017-03-19T13:41:47.968Z,20.66
2017-03-19T13:42:57.915Z,20.67
2017-03-19T13:44:07.864Z,20.79
2017-03-19T13:45:17.806Z,20.76
2017-03-19T13:46:27.434Z,20.76
2017-03-19T13:47:37.060Z,20.8
2017-03-19T13:48:47.003Z,20.74
2017-03-19T13:49:56.948Z,20.73
2017-03-19T13:51:07.205Z,20.77
2017-03-19T13:52:17.146Z,20.74
2017-03-19T13:53:26.478Z,20.72
2017-03-19T13:54:36.418Z,20.74
2017-03-19T13:55:46.361Z,20.77
2017-03-19T13:56:56.611Z,20.72
2017-03-19T13:58:06.562Z,20.73
2017-03-19T13:59:16.835Z,20.74
2017-03-19T14:00:26.512Z,20.82
2017-03-19T14:01:36.456Z,20.84
2017-03-19T14:02:46.406Z,20.76
2017-03-19T14:03:56.354Z,20.74
2017-03-19T14:05:06.619Z,20.7
2017-03-19T14:06:16.558Z,20.76
2017-03-19T14:07:26.495Z,20.8
2017-03-19T14:08:36.133Z,20.74
2017-03-19T14:09:46.086Z,20.84
2017-03-19T14:10:56.348Z,20.82
2017-03-19T14:12:06.603Z,20.82
2017-03-19T14:13:16.861Z,20.82
2017-03-19T14:14:26.199Z,20.82
2017-03-19T14:15:35.873Z,20.73
2017-03-19T14:16:46.131Z,20.82
2017-03-19T14:17:56.072Z,20.74
2017-03-19T14:19:06.027Z,20.74
2017-03-19T14:20:15.998Z,20.79
2017-03-19T14:21:26.258Z,20.79
2017-03-19T14:22:36.513Z,20.79
2017-03-19T14:23:46.154Z,20.76
2017-03-19T14:24:56.419Z,20.77
2017-03-19T14:26:06.386Z,20.82
2017-03-19T14:27:16.018Z,20.82
2017-03-19T14:28:25.966Z,20.7
2017-03-19T14:29:35.913Z,20.73
2017-03-19T14:30:45.854Z,20.74
2017-03-19T14:31:56.107Z,20.72
2017-03-19T14:33:06.064Z,20.79
2017-03-19T14:34:16.021Z,20.74
2017-03-19T14:35:25.977Z,20.8
2017-03-19T14:36:35.597Z,20.74
2017-03-19T14:37:45.557Z,20.72
2017-03-19T14:38:55.192Z,20.76
2017-03-19T14:40:04.824Z,20.87
2017-03-19T14:41:14.134Z,20.82
2017-03-19T14:42:24.430Z,20.82
2017-03-19T14:43:34.381Z,20.76
2017-03-19T14:44:44.013Z,20.8
2017-03-19T14:45:53.961Z,20.76
2017-03-19T14:47:04.225Z,20.82
2017-03-19T14:48:13.856Z,20.82
2017-03-19T14:49:22.864Z,20.79
2017-03-19T14:50:32.817Z,20.76
2017-03-19T14:51:43.094Z,20.84
2017-03-19T14:52:52.723Z,20.87
2017-03-19T14:54:02.994Z,20.77
2017-03-19T14:55:13.253Z,20.74
2017-03-19T14:56:22.888Z,20.85
2017-03-19T14:57:32.829Z,20.8
2017-03-19T14:58:43.099Z,20.79
2017-03-19T14:59:53.043Z,20.79
2017-03-19T15:01:02.988Z,20.8
2017-03-19T15:02:13.247Z,20.82
2017-03-19T15:03:22.567Z,20.8